Time;durP1;ratioP1;P1;durP2;ratioP2;P2;SDS_P1;SDS_P2;PMS_P1;PMS_P2;Temp;Humidity;BMP_temperature;BMP_pressure;BME280_temperature;BME280_humidity;BME280_pressure;Samples;Min_cycle;Max_cycle;Signal;HPM_P1;HPM_P2
2022/06/06 00:02:25;;;;;;;9.15;5.53;;;;;;;;;;5014526;28;20040;-79
2022/06/06 00:04:51;;;;;;;7.47;5.03;;;;;;;;;;5014228;28;20033;-79
2022/06/06 00:07:16;;;;;;;7.00;5.90;;;;;;;;;;4997731;28;20052;-79
2022/06/06 00:09:42;;;;;;;9.18;5.80;;;;;;;;;;5013692;28;20507;-79
2022/06/06 00:12:07;;;;;;;9.07;5.63;;;;;;;;;;4997834;28;20037;-79
2022/06/06 00:14:33;;;;;;;7.18;4.93;;;;;;;;;;5013916;28;20033;-78
2022/06/06 00:16:59;;;;;;;6.88;5.60;;;;;;;;;;4998087;28;20061;-78
2022/06/06 00:19:24;;;;;;;7.45;5.10;;;;;;;;;;5014220;28;20128;-78
2022/06/06 00:21:50;;;;;;;6.25;5.25;;;;;;;;;;4997401;28;20132;-78
2022/06/06 00:24:15;;;;;;;7.03;5.57;;;;;;;;;;5013718;28;20152;-78
2022/06/06 00:26:42;;;;;;;7.70;5.80;;;;;;;;;;5005579;28;20111;-78
2022/06/06 00:29:07;;;;;;;7.70;4.78;;;;;;;;;;4994432;28;20046;-78
2022/06/06 00:37:01;;;;;;;6.03;4.40;;;;;;;;;;5000649;28;20128;-78
2022/06/06 00:39:26;;;;;;;6.28;4.60;;;;;;;;;;4981776;28;20052;-78
2022/06/06 00:41:56;;;;;;;5.53;3.97;;;;;;;;;;4998229;28;20034;-78
2022/06/06 00:44:23;;;;;;;5.72;4.20;;;;;;;;;;4998182;28;20095;-79
2022/06/06 00:47:00;;;;;;;5.47;4.07;;;;;;;;;;4998700;28;20089;-78
2022/06/06 00:49:37;;;;;;;6.18;4.55;;;;;;;;;;4987064;28;20041;-78
2022/06/06 00:52:10;;;;;;;5.90;4.15;;;;;;;;;;5021166;28;20032;-79
2022/06/06 00:54:36;;;;;;;5.80;3.90;;;;;;;;;;5038004;28;20298;-78
2022/06/06 00:57:04;;;;;;;5.40;4.03;;;;;;;;;;5003814;28;20061;-79
2022/06/06 00:59:30;;;;;;;6.43;4.07;;;;;;;;;;5014353;28;20034;-79
2022/06/06 01:01:56;;;;;;;4.50;3.70;;;;;;;;;;5005692;28;20112;-78
2022/06/06 01:04:23;;;;;;;4.57;3.47;;;;;;;;;;4997753;28;20400;-79
2022/06/06 01:06:48;;;;;;;4.97;3.50;;;;;;;;;;4997262;28;20030;-78
2022/06/06 01:09:15;;;;;;;5.43;3.60;;;;;;;;;;5013955;28;20100;-79
2022/06/06 01:11:52;;;;;;;4.95;3.30;;;;;;;;;;4997872;28;20033;-79
2022/06/06 01:14:19;;;;;;;4.90;3.45;;;;;;;;;;4981327;28;20136;-79
2022/06/06 01:17:14;;;;;;;5.05;3.45;;;;;;;;;;4997582;28;20109;-79
2022/06/06 01:20:27;;;;;;;6.07;3.10;;;;;;;;;;5013154;28;20038;-79
2022/06/06 01:23:06;;;;;;;4.95;3.40;;;;;;;;;;5012193;28;20073;-79
2022/06/06 01:26:05;;;;;;;5.93;3.47;;;;;;;;;;5012464;28;20045;-78
2022/06/06 01:28:39;;;;;;;5.15;3.20;;;;;;;;;;5017356;28;20099;-78
2022/06/06 01:31:10;;;;;;;4.65;3.28;;;;;;;;;;5030096;28;20041;-78
2022/06/06 01:33:49;;;;;;;4.22;3.45;;;;;;;;;;5013258;28;20034;-79
2022/06/06 01:36:14;;;;;;;6.15;3.38;;;;;;;;;;4997271;28;20546;-78
2022/06/06 01:38:40;;;;;;;5.70;3.80;;;;;;;;;;5013042;28;20045;-78
2022/06/06 01:41:10;;;;;;;5.18;3.45;;;;;;;;;;5013215;28;20038;-78
2022/06/06 01:43:41;;;;;;;4.32;3.15;;;;;;;;;;4997031;28;20096;-78
2022/06/06 01:46:10;;;;;;;4.40;3.20;;;;;;;;;;5013635;28;20042;-78
2022/06/06 01:48:37;;;;;;;3.67;2.75;;;;;;;;;;5012797;28;20034;-78
2022/06/06 01:51:15;;;;;;;5.55;3.25;;;;;;;;;;5032902;28;20056;-79
2022/06/06 01:53:41;;;;;;;4.28;3.10;;;;;;;;;;5036299;28;20037;-78
2022/06/06 01:56:07;;;;;;;4.22;3.30;;;;;;;;;;5026827;28;20034;-78
2022/06/06 01:58:32;;;;;;;4.10;3.00;;;;;;;;;;4996583;28;20122;-79
2022/06/06 02:00:58;;;;;;;4.63;3.38;;;;;;;;;;4996816;28;20101;-79
2022/06/06 02:03:23;;;;;;;5.13;3.63;;;;;;;;;;5012449;28;20087;-79
2022/06/06 02:05:49;;;;;;;5.10;3.42;;;;;;;;;;5012822;28;20165;-79
2022/06/06 02:08:15;;;;;;;4.50;3.00;;;;;;;;;;5012856;28;20046;-79
2022/06/06 02:10:41;;;;;;;6.45;3.40;;;;;;;;;;5012999;28;20088;-79
2022/06/06 02:13:06;;;;;;;4.20;3.03;;;;;;;;;;4996434;28;20077;-79
2022/06/06 02:15:31;;;;;;;4.10;3.08;;;;;;;;;;5012633;28;20041;-78
2022/06/06 02:17:57;;;;;;;3.92;2.97;;;;;;;;;;5012472;28;20049;-79
2022/06/06 02:20:25;;;;;;;5.22;3.45;;;;;;;;;;5012562;28;20113;-78
2022/06/06 02:22:51;;;;;;;5.50;3.53;;;;;;;;;;5012279;28;20484;-78
2022/06/06 02:25:16;;;;;;;4.32;3.22;;;;;;;;;;5012501;28;20105;-78
2022/06/06 02:27:42;;;;;;;4.68;3.38;;;;;;;;;;5015219;28;20041;-79
2022/06/06 02:30:11;;;;;;;4.30;3.03;;;;;;;;;;4999646;28;20396;-78
2022/06/06 02:32:36;;;;;;;4.10;2.95;;;;;;;;;;5015539;28;20041;-79
2022/06/06 02:35:02;;;;;;;6.75;3.13;;;;;;;;;;5015578;28;20029;-78
2022/06/06 02:37:27;;;;;;;4.18;3.05;;;;;;;;;;5015407;28;20044;-79
2022/06/06 02:39:53;;;;;;;5.13;3.15;;;;;;;;;;5031940;28;20568;-79
2022/06/06 02:42:18;;;;;;;4.25;2.75;;;;;;;;;;5015285;28;20045;-79
2022/06/06 02:44:44;;;;;;;5.43;3.10;;;;;;;;;;5031659;28;20025;-79
2022/06/06 02:47:09;;;;;;;3.67;3.08;;;;;;;;;;5015025;28;20037;-79
2022/06/06 02:49:35;;;;;;;4.43;2.83;;;;;;;;;;5015037;28;20037;-79
2022/06/06 02:52:01;;;;;;;5.03;3.30;;;;;;;;;;5015104;28;20037;-78
2022/06/06 02:54:26;;;;;;;4.43;3.08;;;;;;;;;;4998518;28;20044;-78
2022/06/06 02:56:52;;;;;;;5.60;3.13;;;;;;;;;;4979459;28;20475;-79
2022/06/06 02:59:18;;;;;;;4.93;3.10;;;;;;;;;;4995683;28;20037;-79
2022/06/06 03:01:43;;;;;;;4.88;3.10;;;;;;;;;;5001328;28;20049;-78
2022/06/06 03:04:09;;;;;;;5.32;3.13;;;;;;;;;;5011323;28;20029;-78
2022/06/06 03:06:57;;;;;;;4.10;2.78;;;;;;;;;;4995366;28;20120;-79
2022/06/06 03:09:36;;;;;;;4.07;2.97;;;;;;;;;;5011848;28;20096;-79
2022/06/06 03:12:14;;;;;;;3.85;2.63;;;;;;;;;;5011686;28;20048;-79
2022/06/06 03:15:12;;;;;;;4.57;2.85;;;;;;;;;;5011426;28;20080;-79
2022/06/06 03:20:56;;;;;;;3.10;2.37;;;;;;;;;;5025801;28;20049;-79
2022/06/06 03:23:24;;;;;;;;;;;;;;;;;;5027989;28;20319;-79
2022/06/06 03:26:17;;;;;;;5.18;2.65;;;;;;;;;;5013512;28;20422;-79
2022/06/06 03:28:58;;;;;;;4.28;2.53;;;;;;;;;;5017605;28;20125;-79
2022/06/06 03:31:52;;;;;;;6.95;2.45;;;;;;;;;;5014967;28;20042;-79
2022/06/06 03:34:23;;;;;;;4.32;2.58;;;;;;;;;;5030998;28;20418;-79
2022/06/06 03:37:04;;;;;;;3.90;2.60;;;;;;;;;;5014539;28;20060;-79
2022/06/06 03:40:01;;;;;;;3.50;2.42;;;;;;;;;;5030938;28;20041;-78
2022/06/06 03:42:52;;;;;;;3.42;2.25;;;;;;;;;;5016360;28;20042;-78
2022/06/06 03:45:39;;;;;;;4.05;2.35;;;;;;;;;;4998895;28;20041;-78
2022/06/06 03:48:23;;;;;;;3.33;2.30;;;;;;;;;;5030720;28;20033;-78
2022/06/06 03:51:02;;;;;;;3.80;2.58;;;;;;;;;;5031087;28;20447;-78
2022/06/06 03:54:12;;;;;;;3.85;2.67;;;;;;;;;;4999459;28;20072;-78
2022/06/06 03:57:06;;;;;;;5.82;4.25;;;;;;;;;;5025423;28;20528;-78
2022/06/06 03:59:31;;;;;;;3.28;2.10;;;;;;;;;;5010477;28;20100;-79
2022/06/06 04:02:02;;;;;;;3.17;2.30;;;;;;;;;;5002111;28;20456;-78
2022/06/06 04:04:28;;;;;;;3.97;2.30;;;;;;;;;;5010820;28;20088;-79
2022/06/06 04:06:55;;;;;;;3.95;2.22;;;;;;;;;;5010437;28;20511;-78
2022/06/06 04:09:21;;;;;;;4.28;2.70;;;;;;;;;;5010763;28;20073;-78
2022/06/06 04:12:30;;;;;;;2.45;2.10;;;;;;;;;;5010639;28;20049;-79
2022/06/06 04:15:10;;;;;;;5.05;2.30;;;;;;;;;;5028708;28;20061;-78
2022/06/06 04:17:37;;;;;;;2.88;1.98;;;;;;;;;;5011303;28;20046;-78
2022/06/06 04:20:31;;;;;;;3.47;2.40;;;;;;;;;;5027330;28;20172;-78
2022/06/06 04:23:23;;;;;;;3.00;2.30;;;;;;;;;;5011603;28;20081;-78
2022/06/06 04:26:13;;;;;;;3.25;2.10;;;;;;;;;;5011665;28;20034;-78
2022/06/06 04:28:48;;;;;;;4.30;1.90;;;;;;;;;;5016157;28;20091;-78
2022/06/06 04:31:32;;;;;;;2.60;2.00;;;;;;;;;;5014490;28;20104;-78
2022/06/06 04:34:08;;;;;;;2.78;1.92;;;;;;;;;;4997965;28;20037;-79
2022/06/06 04:36:38;;;;;;;3.80;2.42;;;;;;;;;;5014458;28;20033;-78
2022/06/06 04:39:14;;;;;;;3.20;1.92;;;;;;;;;;5030173;28;20116;-79
2022/06/06 04:41:48;;;;;;;5.05;2.50;;;;;;;;;;5030334;28;20033;-78
2022/06/06 04:44:28;;;;;;;3.22;1.90;;;;;;;;;;4997122;28;20052;-79
2022/06/06 04:47:35;;;;;;;2.97;2.00;;;;;;;;;;5029963;28;20108;-78
2022/06/06 04:50:12;;;;;;;2.95;1.75;;;;;;;;;;5031072;28;20056;-79
2022/06/06 04:52:39;;;;;;;2.50;1.70;;;;;;;;;;4981196;28;20083;-79
2022/06/06 04:55:06;;;;;;;2.90;1.60;;;;;;;;;;4997722;28;20047;-78
2022/06/06 04:57:31;;;;;;;4.43;1.60;;;;;;;;;;4994041;28;20389;-79
2022/06/06 04:59:57;;;;;;;2.50;1.63;;;;;;;;;;4993850;28;20128;-78
2022/06/06 05:02:22;;;;;;;2.60;1.75;;;;;;;;;;5008811;28;20044;-79
2022/06/06 05:04:48;;;;;;;2.80;1.83;;;;;;;;;;5013475;28;20040;-79
2022/06/06 05:07:44;;;;;;;2.72;1.65;;;;;;;;;;4997129;28;20041;-79
2022/06/06 05:10:34;;;;;;;3.40;1.58;;;;;;;;;;5016096;28;20507;-79
2022/06/06 05:13:18;;;;;;;2.53;1.60;;;;;;;;;;5029677;28;20511;-78
2022/06/06 05:15:58;;;;;;;3.72;2.00;;;;;;;;;;5029812;28;20045;-78
2022/06/06 05:18:53;;;;;;;3.45;1.67;;;;;;;;;;5016783;28;20491;-78
2022/06/06 05:21:25;;;;;;;2.63;1.63;;;;;;;;;;5033533;28;20033;-78
2022/06/06 05:24:21;;;;;;;5.05;1.63;;;;;;;;;;5034517;28;20033;-78
2022/06/06 05:27:07;;;;;;;2.53;1.27;;;;;;;;;;5024201;28;20065;-78
2022/06/06 05:29:45;;;;;;;2.83;1.50;;;;;;;;;;4998279;28;20072;-79
2022/06/06 05:32:45;;;;;;;4.47;1.77;;;;;;;;;;4998466;28;20080;-78
2022/06/06 05:35:40;;;;;;;2.38;1.40;;;;;;;;;;5014445;28;20504;-79
2022/06/06 05:38:30;;;;;;;2.42;1.20;;;;;;;;;;4996732;28;20041;-79
2022/06/06 05:41:08;;;;;;;1.90;1.10;;;;;;;;;;5013556;28;20053;-79
2022/06/06 05:43:52;;;;;;;3.20;1.48;;;;;;;;;;5014198;28;20038;-78
2022/06/06 05:46:37;;;;;;;3.08;1.63;;;;;;;;;;4996969;28;20034;-79
2022/06/06 05:49:25;;;;;;;4.03;1.45;;;;;;;;;;4996294;28;20077;-79
2022/06/06 05:52:30;;;;;;;2.92;1.30;;;;;;;;;;4996668;28;20382;-79
2022/06/06 05:55:34;;;;;;;1.95;1.10;;;;;;;;;;5011890;28;20152;-79
2022/06/06 05:58:07;;;;;;;2.05;1.27;;;;;;;;;;5012253;28;20041;-79
2022/06/06 06:01:02;;;;;;;2.10;0.93;;;;;;;;;;5013023;28;20116;-79
2022/06/06 06:03:33;;;;;;;2.17;1.33;;;;;;;;;;5012011;28;20542;-79
2022/06/06 06:06:13;;;;;;;2.17;1.30;;;;;;;;;;5029561;28;20042;-79
2022/06/06 06:08:46;;;;;;;2.50;1.23;;;;;;;;;;4997267;28;20050;-79
2022/06/06 06:11:37;;;;;;;1.95;1.30;;;;;;;;;;5012837;28;20038;-79
2022/06/06 06:14:29;;;;;;;2.33;1.02;;;;;;;;;;5014059;28;20049;-79
2022/06/06 06:16:57;;;;;;;;;;;;;;;;;;4999467;28;20034;-79
2022/06/06 06:19:25;;;;;;;2.00;0.90;;;;;;;;;;4980198;28;19975;-79
2022/06/06 06:21:54;;;;;;;2.88;1.38;;;;;;;;;;4995828;28;20068;-79
2022/06/06 06:24:29;;;;;;;2.45;1.08;;;;;;;;;;4996131;28;20029;-79
2022/06/06 06:26:55;;;;;;;1.20;0.70;;;;;;;;;;5003157;28;20400;-79
2022/06/06 06:29:20;;;;;;;1.95;0.88;;;;;;;;;;5011418;28;20042;-79
2022/06/06 06:32:08;;;;;;;1.70;0.70;;;;;;;;;;5012066;28;20052;-79
2022/06/06 06:34:37;;;;;;;1.85;1.17;;;;;;;;;;5014063;28;20026;-79
2022/06/06 06:37:14;;;;;;;1.33;0.80;;;;;;;;;;5028662;28;20496;-79
2022/06/06 06:39:58;;;;;;;1.95;0.98;;;;;;;;;;5013306;28;20403;-79
2022/06/06 06:43:10;;;;;;;2.63;1.02;;;;;;;;;;5028850;28;20069;-79
2022/06/06 06:45:56;;;;;;;2.90;0.95;;;;;;;;;;5012889;28;20504;-79
2022/06/06 06:48:35;;;;;;;1.60;0.55;;;;;;;;;;5012234;28;20069;-79
2022/06/06 06:51:05;;;;;;;2.13;0.93;;;;;;;;;;5031673;28;20040;-78
2022/06/06 06:53:49;;;;;;;2.53;0.80;;;;;;;;;;5034995;28;20044;-79
2022/06/06 06:56:17;;;;;;;1.30;0.60;;;;;;;;;;5045654;28;20033;-80
2022/06/06 06:59:24;;;;;;;2.13;0.80;;;;;;;;;;5033109;28;20038;-79
2022/06/06 07:08:34;;;;;;;1.50;0.80;;;;;;;;;;5031434;28;20187;-79
2022/06/06 07:11:16;;;;;;;4.30;1.25;;;;;;;;;;5031942;28;20128;-77
2022/06/06 07:14:03;;;;;;;1.63;0.63;;;;;;;;;;5015387;28;20048;-79
2022/06/06 07:16:38;;;;;;;1.40;0.60;;;;;;;;;;4999087;28;20041;-79
2022/06/06 07:19:15;;;;;;;1.38;0.70;;;;;;;;;;5015115;28;20061;-77
2022/06/06 07:21:41;;;;;;;2.10;0.60;;;;;;;;;;4998168;28;20580;-78
2022/06/06 07:24:11;;;;;;;2.05;0.68;;;;;;;;;;5014506;28;20403;-78
2022/06/06 07:26:38;;;;;;;1.45;0.47;;;;;;;;;;4995134;28;20125;-77
2022/06/06 07:29:08;;;;;;;1.90;0.70;;;;;;;;;;4978920;28;20033;-78
2022/06/06 07:31:39;;;;;;;1.10;0.47;;;;;;;;;;4994841;28;20551;-78
2022/06/06 07:34:32;;;;;;;1.67;0.50;;;;;;;;;;5012594;28;20084;-78
2022/06/06 07:37:10;;;;;;;1.52;0.68;;;;;;;;;;4994235;28;20296;-78
2022/06/06 07:40:14;;;;;;;1.52;0.60;;;;;;;;;;5010840;28;20053;-78
2022/06/06 07:43:13;;;;;;;1.60;0.60;;;;;;;;;;5010983;28;20040;-78
2022/06/06 07:45:46;;;;;;;1.48;0.70;;;;;;;;;;4980840;28;20045;-78
2022/06/06 07:48:14;;;;;;;1.42;0.60;;;;;;;;;;4995237;28;20033;-78
2022/06/06 07:50:55;;;;;;;1.38;0.47;;;;;;;;;;5036727;28;20041;-78
2022/06/06 07:53:26;;;;;;;0.95;0.50;;;;;;;;;;5035093;28;20108;-79
2022/06/06 07:56:19;;;;;;;1.92;0.47;;;;;;;;;;5010258;28;20040;-78
2022/06/06 07:59:06;;;;;;;1.30;0.70;;;;;;;;;;5012146;28;20034;-78
2022/06/06 08:01:56;;;;;;;2.15;0.68;;;;;;;;;;5003886;28;20069;-78
2022/06/06 08:04:58;;;;;;;1.60;0.68;;;;;;;;;;5027481;28;20036;-78
2022/06/06 08:07:27;;;;;;;;;;;;;;;;;;5027169;28;20077;-78
2022/06/06 08:10:06;;;;;;;2.97;0.65;;;;;;;;;;4994426;28;20017;-78
2022/06/06 08:12:43;;;;;;;1.70;0.70;;;;;;;;;;5026969;28;20038;-78
2022/06/06 08:15:19;;;;;;;1.58;0.60;;;;;;;;;;5010909;28;20042;-78
2022/06/06 08:18:14;;;;;;;1.25;0.43;;;;;;;;;;5010706;28;20030;-78
2022/06/06 08:21:19;;;;;;;1.10;0.50;;;;;;;;;;5026783;28;20412;-78
2022/06/06 08:23:44;;;;;;;1.45;0.43;;;;;;;;;;5016282;28;20049;-78
2022/06/06 08:26:10;;;;;;;0.75;0.35;;;;;;;;;;5013928;28;20034;-78
2022/06/06 08:28:40;;;;;;;2.60;0.60;;;;;;;;;;5013970;28;20068;-78
2022/06/06 08:31:07;;;;;;;1.25;0.40;;;;;;;;;;5014527;28;20037;-78
2022/06/06 08:33:33;;;;;;;1.02;0.43;;;;;;;;;;5014357;28;20037;-77
2022/06/06 08:36:32;;;;;;;0.95;0.50;;;;;;;;;;5013842;28;20025;-78
2022/06/06 08:39:19;;;;;;;1.05;0.43;;;;;;;;;;5030703;28;20046;-78
2022/06/06 08:42:13;;;;;;;0.88;0.40;;;;;;;;;;5015344;28;20046;-78
2022/06/06 08:44:46;;;;;;;0.70;0.35;;;;;;;;;;5031719;28;20067;-78
2022/06/06 08:47:18;;;;;;;1.92;0.45;;;;;;;;;;5030204;28;20052;-78
2022/06/06 08:53:00;;;;;;;0.93;0.40;;;;;;;;;;5032748;28;20455;-78
2022/06/06 08:55:29;;;;;;;1.85;0.50;;;;;;;;;;5033858;28;20052;-78
2022/06/06 08:58:25;;;;;;;1.23;0.38;;;;;;;;;;5034789;28;20037;-78
2022/06/06 09:01:03;;;;;;;0.90;0.50;;;;;;;;;;5017725;28;20098;-79
2022/06/06 09:03:43;;;;;;;1.85;0.45;;;;;;;;;;5033839;28;20037;-79
2022/06/06 09:06:14;;;;;;;1.33;0.50;;;;;;;;;;5033851;28;20116;-78
2022/06/06 09:08:52;;;;;;;1.53;0.60;;;;;;;;;;5033252;28;20040;-78
2022/06/06 09:11:45;;;;;;;1.25;0.50;;;;;;;;;;5034076;28;20310;-77
2022/06/06 09:14:35;;;;;;;1.17;0.38;;;;;;;;;;5034732;28;20029;-78
2022/06/06 09:17:38;;;;;;;1.15;0.55;;;;;;;;;;5033440;28;20026;-78
2022/06/06 09:20:10;;;;;;;0.90;0.50;;;;;;;;;;5033681;28;20040;-78
2022/06/06 09:22:38;;;;;;;2.00;0.40;;;;;;;;;;5033379;28;20034;-78
2022/06/06 09:25:35;;;;;;;1.10;0.70;;;;;;;;;;5033720;28;20044;-78
2022/06/06 09:28:06;;;;;;;1.17;0.50;;;;;;;;;;5014254;28;20037;-78
2022/06/06 09:30:38;;;;;;;1.02;0.65;;;;;;;;;;5013439;28;20385;-78
2022/06/06 09:33:10;;;;;;;1.50;0.80;;;;;;;;;;5014620;28;20033;-78
2022/06/06 09:35:51;;;;;;;2.23;0.67;;;;;;;;;;5013355;28;20045;-78
2022/06/06 09:38:45;;;;;;;0.90;0.37;;;;;;;;;;4998443;28;20041;-78
2022/06/06 09:41:48;;;;;;;1.35;0.70;;;;;;;;;;5014654;28;20034;-79
2022/06/06 09:44:32;;;;;;;1.02;0.40;;;;;;;;;;5013019;28;20145;-79
2022/06/06 09:47:18;;;;;;;1.85;0.55;;;;;;;;;;5013274;28;20081;-79
2022/06/06 09:50:11;;;;;;;2.40;0.60;;;;;;;;;;5023502;28;20415;-78
2022/06/06 09:53:01;;;;;;;1.50;0.75;;;;;;;;;;5054020;28;20037;-79
2022/06/06 09:59:02;;;;;;;0.82;0.32;;;;;;;;;;5033778;28;20025;-79
2022/06/06 10:01:49;;;;;;;1.38;0.57;;;;;;;;;;5044624;28;20038;-79
2022/06/06 10:04:30;;;;;;;1.38;0.80;;;;;;;;;;5033024;28;20037;-78
2022/06/06 10:07:20;;;;;;;1.98;0.40;;;;;;;;;;5033601;28;20029;-79
2022/06/06 10:10:23;;;;;;;2.33;0.75;;;;;;;;;;5032881;28;20081;-78
2022/06/06 10:13:03;;;;;;;1.17;0.50;;;;;;;;;;5033663;28;20034;-79
2022/06/06 10:15:55;;;;;;;1.67;0.50;;;;;;;;;;5015482;28;20041;-79
2022/06/06 10:18:27;;;;;;;;;;;;;;;;;;5002233;28;20037;-79
2022/06/06 10:21:28;;;;;;;1.77;0.57;;;;;;;;;;5049407;28;19917;-79
2022/06/06 10:24:03;;;;;;;1.10;0.50;;;;;;;;;;5007882;28;20050;-79
2022/06/06 10:26:38;;;;;;;1.40;0.60;;;;;;;;;;5025857;28;20076;-78
2022/06/06 10:29:27;;;;;;;0.93;0.40;;;;;;;;;;4996738;28;20049;-78
2022/06/06 10:32:04;;;;;;;1.55;0.47;;;;;;;;;;4995756;28;20079;-78
2022/06/06 10:34:39;;;;;;;2.75;0.70;;;;;;;;;;5012519;28;20038;-79
2022/06/06 10:37:28;;;;;;;1.17;0.50;;;;;;;;;;4996258;28;20092;-79
2022/06/06 10:39:56;;;;;;;1.52;0.40;;;;;;;;;;4996044;28;20496;-79
2022/06/06 10:42:34;;;;;;;2.40;0.73;;;;;;;;;;5012266;28;20045;-78
2022/06/06 10:45:16;;;;;;;1.55;0.57;;;;;;;;;;4995468;28;20042;-79
2022/06/06 10:48:00;;;;;;;2.10;0.50;;;;;;;;;;4995826;28;20108;-79
2022/06/06 10:50:33;;;;;;;0.40;0.20;;;;;;;;;;5035518;28;20095;-79
2022/06/06 10:53:19;;;;;;;1.67;0.55;;;;;;;;;;5002585;28;20056;-79
2022/06/06 10:56:03;;;;;;;1.58;0.70;;;;;;;;;;5048669;28;20037;-79
2022/06/06 10:58:46;;;;;;;1.00;0.40;;;;;;;;;;5014906;28;20057;-79
2022/06/06 11:01:30;;;;;;;0.75;0.30;;;;;;;;;;5032305;28;20044;-79
2022/06/06 11:04:32;;;;;;;2.55;0.50;;;;;;;;;;5032745;28;20461;-79
2022/06/06 11:07:04;;;;;;;1.00;0.40;;;;;;;;;;5032710;28;20388;-78
2022/06/06 11:09:32;;;;;;;;;;;;;;;;;;5032154;28;20045;-79
2022/06/06 11:12:00;;;;;;;0.90;0.32;;;;;;;;;;5048137;28;20160;-79
2022/06/06 11:14:36;;;;;;;1.42;0.40;;;;;;;;;;5030536;28;20518;-79
2022/06/06 11:17:20;;;;;;;1.25;0.40;;;;;;;;;;5015142;28;20030;-78
2022/06/06 11:20:15;;;;;;;0.73;0.38;;;;;;;;;;5031335;28;20037;-79
2022/06/06 11:22:42;;;;;;;0.57;0.40;;;;;;;;;;5000011;28;20036;-78
2022/06/06 11:25:18;;;;;;;1.50;0.40;;;;;;;;;;5015011;28;20123;-79
2022/06/06 11:28:22;;;;;;;1.20;0.32;;;;;;;;;;4981446;28;20037;-79
2022/06/06 11:31:07;;;;;;;1.45;0.40;;;;;;;;;;4994034;28;20038;-79
2022/06/06 11:33:51;;;;;;;1.95;0.50;;;;;;;;;;5011167;28;20034;-78
2022/06/06 11:36:17;;;;;;;0.30;0.20;;;;;;;;;;5012510;28;20037;-79
2022/06/06 11:38:52;;;;;;;1.17;0.85;;;;;;;;;;5011182;28;20044;-79
2022/06/06 11:41:39;;;;;;;2.00;0.40;;;;;;;;;;5011506;28;20110;-78
2022/06/06 11:44:25;;;;;;;0.77;0.47;;;;;;;;;;5011037;28;20116;-78
2022/06/06 11:46:57;;;;;;;0.68;0.30;;;;;;;;;;5011121;28;20100;-78
2022/06/06 11:50:04;;;;;;;4.87;0.57;;;;;;;;;;5015831;28;20045;-79
2022/06/06 11:52:55;;;;;;;1.48;0.68;;;;;;;;;;5038543;28;20134;-78
2022/06/06 11:55:30;;;;;;;0.50;0.30;;;;;;;;;;5050587;28;20526;-78
2022/06/06 11:58:33;;;;;;;0.80;0.30;;;;;;;;;;5027114;28;20072;-78
2022/06/06 12:01:32;;;;;;;0.63;0.30;;;;;;;;;;5015754;28;20034;-79
2022/06/06 12:04:37;;;;;;;1.20;0.40;;;;;;;;;;5032023;28;20046;-78
2022/06/06 12:07:03;;;;;;;1.73;0.40;;;;;;;;;;5013861;28;20045;-79
2022/06/06 12:09:35;;;;;;;1.13;0.47;;;;;;;;;;5014025;28;20140;-79
2022/06/06 12:12:37;;;;;;;1.77;0.40;;;;;;;;;;5014158;28;20073;-79
2022/06/06 12:15:27;;;;;;;1.27;0.30;;;;;;;;;;5018066;28;20045;-79
2022/06/06 12:17:58;;;;;;;1.20;0.40;;;;;;;;;;5030554;28;20038;-79
2022/06/06 12:20:35;;;;;;;1.17;0.47;;;;;;;;;;5014098;28;20091;-78
2022/06/06 12:23:18;;;;;;;0.88;0.60;;;;;;;;;;5030243;28;20095;-78
2022/06/06 12:26:06;;;;;;;4.28;1.05;;;;;;;;;;4998175;28;20056;-78
2022/06/06 12:29:09;;;;;;;1.10;0.30;;;;;;;;;;5000055;28;20044;-79
2022/06/06 12:31:51;;;;;;;0.90;0.40;;;;;;;;;;5014734;28;20030;-79
2022/06/06 12:34:35;;;;;;;;;;;;;;;;;;4998913;28;20033;-79
2022/06/06 12:37:13;;;;;;;4.35;0.70;;;;;;;;;;5014472;28;19913;-79
2022/06/06 12:40:15;;;;;;;1.33;0.40;;;;;;;;;;5014369;28;20500;-80
2022/06/06 12:43:04;;;;;;;0.93;0.40;;;;;;;;;;4997875;28;20092;-79
2022/06/06 12:45:38;;;;;;;1.15;0.40;;;;;;;;;;4998601;28;20037;-79
2022/06/06 12:48:16;;;;;;;0.82;0.40;;;;;;;;;;5014796;28;20571;-79
2022/06/06 12:51:06;;;;;;;1.35;0.50;;;;;;;;;;5025449;28;20060;-79
2022/06/06 12:54:00;;;;;;;1.30;0.50;;;;;;;;;;5038478;28;20033;-79
2022/06/06 12:56:37;;;;;;;2.17;0.50;;;;;;;;;;4993800;28;20026;-79
2022/06/06 12:59:21;;;;;;;0.68;0.38;;;;;;;;;;5014113;28;20038;-79
2022/06/06 13:01:50;;;;;;;1.55;0.77;;;;;;;;;;5025156;28;20033;-79
2022/06/06 13:04:33;;;;;;;1.20;0.43;;;;;;;;;;5017579;28;20045;-79
2022/06/06 13:07:17;;;;;;;0.95;0.30;;;;;;;;;;5033581;28;20044;-79
2022/06/06 13:10:14;;;;;;;1.33;0.50;;;;;;;;;;5033344;28;20041;-79
2022/06/06 13:13:03;;;;;;;0.90;0.40;;;;;;;;;;5017242;28;20029;-79
2022/06/06 13:15:42;;;;;;;0.82;0.30;;;;;;;;;;5033647;28;20120;-79
2022/06/06 13:18:28;;;;;;;1.02;0.50;;;;;;;;;;5018863;28;20047;-79
2022/06/06 13:21:14;;;;;;;1.10;0.40;;;;;;;;;;5017476;28;20041;-79
2022/06/06 13:23:57;;;;;;;2.50;0.50;;;;;;;;;;5033036;28;20503;-79
2022/06/06 13:26:46;;;;;;;0.73;0.38;;;;;;;;;;5027126;28;20061;-79
2022/06/06 13:29:27;;;;;;;1.75;0.50;;;;;;;;;;4997251;28;20045;-79
2022/06/06 13:32:02;;;;;;;1.70;0.43;;;;;;;;;;4997650;28;20064;-79
2022/06/06 13:34:45;;;;;;;1.42;0.30;;;;;;;;;;5014634;28;20065;-79
2022/06/06 13:37:24;;;;;;;1.25;0.30;;;;;;;;;;4997896;28;20077;-79
2022/06/06 13:40:16;;;;;;;0.82;0.35;;;;;;;;;;5013292;28;20069;-79
2022/06/06 13:42:48;;;;;;;1.17;0.47;;;;;;;;;;4996935;28;20400;-79
2022/06/06 13:45:22;;;;;;;1.88;0.50;;;;;;;;;;4996939;28;20064;-79
2022/06/06 13:48:06;;;;;;;1.02;0.60;;;;;;;;;;5012994;28;20578;-79
2022/06/06 13:50:57;;;;;;;1.17;0.40;;;;;;;;;;5037942;28;20108;-79
2022/06/06 13:53:25;;;;;;;1.02;0.30;;;;;;;;;;5019315;28;20049;-79
2022/06/06 13:56:27;;;;;;;0.77;0.30;;;;;;;;;;5028881;28;20026;-79
2022/06/06 13:59:25;;;;;;;0.50;0.20;;;;;;;;;;4981738;28;20546;-79
2022/06/06 14:01:54;;;;;;;0.40;0.20;;;;;;;;;;5023302;28;20044;-79
2022/06/06 14:04:37;;;;;;;1.35;0.30;;;;;;;;;;5016657;28;20095;-79
2022/06/06 14:07:26;;;;;;;1.20;0.30;;;;;;;;;;5032719;28;20044;-78
2022/06/06 14:10:00;;;;;;;1.58;0.50;;;;;;;;;;5021595;28;20484;-79
2022/06/06 14:12:29;;;;;;;1.17;0.28;;;;;;;;;;5000252;28;20034;-79
2022/06/06 14:15:02;;;;;;;0.50;0.30;;;;;;;;;;4999740;28;20070;-79
2022/06/06 14:17:29;;;;;;;1.23;0.30;;;;;;;;;;5000066;28;20095;-78
2022/06/06 14:20:32;;;;;;;0.40;0.20;;;;;;;;;;5016334;28;20098;-79
2022/06/06 14:23:17;;;;;;;1.60;0.28;;;;;;;;;;5015544;28;20038;-78
2022/06/06 14:25:45;;;;;;;1.02;0.30;;;;;;;;;;5017856;28;20044;-78
2022/06/06 14:28:28;;;;;;;1.52;0.85;;;;;;;;;;4996087;28;20038;-79
2022/06/06 14:30:54;;;;;;;0.47;0.20;;;;;;;;;;4997497;28;20392;-79
2022/06/06 14:33:33;;;;;;;0.65;0.30;;;;;;;;;;4996128;28;20030;-78
2022/06/06 14:36:21;;;;;;;0.77;0.30;;;;;;;;;;4980048;28;20507;-78
2022/06/06 14:39:00;;;;;;;0.90;0.28;;;;;;;;;;4995655;28;20420;-77
2022/06/06 14:41:39;;;;;;;2.03;0.50;;;;;;;;;;4996435;28;20087;-77
2022/06/06 14:44:05;;;;;;;0.85;0.30;;;;;;;;;;5011844;28;20064;-79
2022/06/06 14:46:52;;;;;;;1.77;0.47;;;;;;;;;;4979635;28;20066;-79
2022/06/06 14:49:25;;;;;;;0.93;0.20;;;;;;;;;;4998173;28;20132;-78
2022/06/06 14:51:51;;;;;;;1.38;0.20;;;;;;;;;;5018666;28;20434;-78
2022/06/06 14:54:17;;;;;;;2.50;0.30;;;;;;;;;;5034981;28;20037;-79
2022/06/06 14:56:50;;;;;;;0.93;0.20;;;;;;;;;;5020836;28;20026;-78
2022/06/06 14:59:33;;;;;;;0.55;0.15;;;;;;;;;;4995861;28;20167;-79
2022/06/06 15:02:11;;;;;;;1.95;0.30;;;;;;;;;;4989316;28;20044;-79
2022/06/06 15:04:36;;;;;;;8.70;0.52;;;;;;;;;;5013282;28;20048;-81
2022/06/06 15:07:01;;;;;;;1.10;0.20;;;;;;;;;;4994783;28;20128;-80
2022/06/06 15:09:30;;;;;;;1.30;0.30;;;;;;;;;;5012075;28;20480;-81
2022/06/06 15:11:55;;;;;;;1.88;0.40;;;;;;;;;;5011617;28;20034;-80
2022/06/06 15:14:26;;;;;;;3.55;0.22;;;;;;;;;;4979123;28;20080;-79
2022/06/06 15:16:51;;;;;;;1.40;0.35;;;;;;;;;;5011931;28;20087;-79
2022/06/06 15:19:21;;;;;;;4.57;0.43;;;;;;;;;;5011698;28;20437;-80
2022/06/06 15:21:48;;;;;;;1.33;0.30;;;;;;;;;;5011278;28;20869;-80
2022/06/06 15:24:19;;;;;;;0.95;0.30;;;;;;;;;;5011341;28;20084;-79
2022/06/06 15:26:49;;;;;;;2.70;0.25;;;;;;;;;;5009769;28;20438;-79
2022/06/06 15:29:21;;;;;;;1.95;0.30;;;;;;;;;;5014831;28;20444;-79
2022/06/06 15:32:12;;;;;;;2.22;0.70;;;;;;;;;;5015089;28;20143;-79
2022/06/06 15:34:47;;;;;;;2.15;0.63;;;;;;;;;;5017098;28;20072;-80
2022/06/06 15:37:25;;;;;;;3.08;0.30;;;;;;;;;;5014325;28;20041;-79
2022/06/06 15:40:12;;;;;;;5.15;0.40;;;;;;;;;;5015676;28;20052;-79
2022/06/06 15:42:44;;;;;;;4.97;0.65;;;;;;;;;;5031034;28;20025;-80
2022/06/06 15:45:26;;;;;;;4.32;1.60;;;;;;;;;;5014536;28;20029;-78
2022/06/06 15:48:02;;;;;;;5.07;2.50;;;;;;;;;;5016067;28;20037;-79
2022/06/06 15:50:55;;;;;;;2.30;1.15;;;;;;;;;;5014436;28;20096;-79
2022/06/06 15:53:48;;;;;;;6.20;1.15;;;;;;;;;;4997753;28;20495;-79
2022/06/06 15:56:27;;;;;;;2.25;0.70;;;;;;;;;;5011161;28;20058;-79
2022/06/06 15:58:58;;;;;;;3.55;1.00;;;;;;;;;;5020209;28;20052;-78
2022/06/06 16:01:32;;;;;;;2.00;0.47;;;;;;;;;;5038261;28;20033;-79
2022/06/06 16:04:22;;;;;;;4.25;1.00;;;;;;;;;;5013645;28;20164;-79
2022/06/06 16:06:52;;;;;;;2.53;0.70;;;;;;;;;;4994318;28;20042;-79
2022/06/06 16:09:39;;;;;;;3.83;0.93;;;;;;;;;;4994510;28;20053;-78
2022/06/06 16:12:24;;;;;;;3.08;1.17;;;;;;;;;;5012310;28;20381;-78
2022/06/06 16:14:58;;;;;;;5.25;1.17;;;;;;;;;;5010904;28;20042;-78
2022/06/06 16:17:42;;;;;;;3.42;0.90;;;;;;;;;;4997513;28;20037;-78